createdAt,value
2022-08-02T00:02:17.643Z,18.10
2022-08-02T00:04:41.315Z,18.10
2022-08-02T00:07:06.504Z,18.00
2022-08-02T00:09:30.337Z,18.00
2022-08-02T00:11:54.096Z,18.00
2022-08-02T00:14:17.895Z,18.00
2022-08-02T00:16:41.713Z,18.10
2022-08-02T00:19:05.537Z,18.10
2022-08-02T00:21:29.244Z,18.10
2022-08-02T00:24:27.588Z,18.10
2022-08-02T00:26:38.183Z,18.10
2022-08-02T00:29:02.089Z,18.20
2022-08-02T00:31:25.932Z,18.20
2022-08-02T00:34:26.317Z,18.20
2022-08-02T00:36:33.408Z,18.20
2022-08-02T00:38:58.777Z,18.20
2022-08-02T00:41:23.843Z,18.30
2022-08-02T00:43:49.233Z,18.30
2022-08-02T00:46:13.023Z,18.30
2022-08-02T00:48:36.788Z,18.30
2022-08-02T00:51:05.581Z,18.30
2022-08-02T00:53:29.406Z,18.30
2022-08-02T00:55:54.605Z,18.30
2022-08-02T00:58:18.391Z,18.40
2022-08-02T01:00:42.239Z,18.40
2022-08-02T01:03:06.058Z,18.40
2022-08-02T01:05:30.604Z,18.40
2022-08-02T01:07:54.368Z,18.40
2022-08-02T01:10:18.084Z,18.40
2022-08-02T01:12:45.099Z,18.40
2022-08-02T01:15:12.172Z,18.50
2022-08-02T01:17:45.715Z,18.50
2022-08-02T01:20:25.268Z,18.50
2022-08-02T01:23:11.208Z,18.50
2022-08-02T01:26:04.880Z,18.50
2022-08-02T01:28:39.624Z,18.50
2022-08-02T01:31:11.783Z,18.50
2022-08-02T01:33:43.151Z,18.50
2022-08-02T01:36:11.544Z,18.50
2022-08-02T01:38:40.802Z,18.50
2022-08-02T01:41:07.117Z,18.50
2022-08-02T01:43:35.495Z,18.50
2022-08-02T01:46:01.180Z,18.50
2022-08-02T01:48:26.280Z,18.50
2022-08-02T01:50:52.961Z,18.50
2022-08-02T01:53:20.719Z,18.50
2022-08-02T01:55:58.282Z,18.50
2022-08-02T01:58:28.216Z,18.40
2022-08-02T02:00:55.488Z,18.40
2022-08-02T02:03:24.623Z,18.50
2022-08-02T02:05:50.472Z,18.40
2022-08-02T02:08:14.935Z,18.40
2022-08-02T02:10:52.468Z,18.40
2022-08-02T02:13:20.200Z,18.40
2022-08-02T02:15:48.767Z,18.40
2022-08-02T02:18:20.456Z,18.40
2022-08-02T02:20:44.547Z,18.50
2022-08-02T02:23:08.418Z,18.50
2022-08-02T02:25:35.784Z,18.50
2022-08-02T02:28:06.532Z,18.40
2022-08-02T02:30:32.888Z,18.40
2022-08-02T02:33:01.040Z,18.40
2022-08-02T02:35:31.670Z,18.40
2022-08-02T02:37:57.863Z,18.40
2022-08-02T02:40:22.532Z,18.40
2022-08-02T02:42:49.288Z,18.40
2022-08-02T02:45:14.035Z,18.40
2022-08-02T02:47:40.761Z,18.40
2022-08-02T02:50:06.895Z,18.30
2022-08-02T02:52:32.740Z,18.30
2022-08-02T02:54:57.035Z,18.20
2022-08-02T02:57:22.416Z,18.20
2022-08-02T02:59:49.723Z,18.10
2022-08-02T03:02:14.891Z,18.10
2022-08-02T03:04:56.931Z,18.10
2022-08-02T03:07:21.696Z,18.10
2022-08-02T03:09:47.973Z,18.00
2022-08-02T03:12:18.781Z,17.90
2022-08-02T03:14:45.182Z,17.90
2022-08-02T03:17:13.344Z,17.90
2022-08-02T03:19:37.107Z,17.90
2022-08-02T03:22:00.873Z,17.90
2022-08-02T03:24:27.841Z,17.80
2022-08-02T03:26:53.589Z,17.80
2022-08-02T03:29:17.293Z,17.80
2022-08-02T03:31:43.152Z,17.80
2022-08-02T03:34:06.893Z,17.80
2022-08-02T03:36:34.488Z,17.70
2022-08-02T03:38:59.514Z,17.70
2022-08-02T03:41:24.766Z,17.60
2022-08-02T03:43:51.845Z,17.60
2022-08-02T03:46:19.872Z,17.60
2022-08-02T03:48:44.089Z,17.60
2022-08-02T03:51:08.631Z,17.50
2022-08-02T03:53:32.600Z,17.40
2022-08-02T03:55:56.524Z,17.40
2022-08-02T03:58:21.382Z,17.30
2022-08-02T04:00:46.874Z,17.30
2022-08-02T04:03:10.970Z,17.30
2022-08-02T04:05:35.056Z,17.10
2022-08-02T04:08:35.119Z,17.00
2022-08-02T04:11:18.809Z,16.90
2022-08-02T04:13:42.772Z,16.90
2022-08-02T04:16:15.227Z,16.90
2022-08-02T04:18:46.883Z,17.00
2022-08-02T04:21:15.070Z,17.00
2022-08-02T04:23:40.180Z,17.10
2022-08-02T04:26:08.699Z,17.10
2022-08-02T04:28:38.496Z,17.10
2022-08-02T04:31:02.616Z,17.20
2022-08-02T04:33:28.567Z,17.30
2022-08-02T04:35:56.504Z,17.30
2022-08-02T04:38:23.073Z,17.30
2022-08-02T04:40:53.404Z,17.30
2022-08-02T04:43:17.123Z,17.30
2022-08-02T04:45:40.892Z,17.40
2022-08-02T04:48:06.040Z,17.40
2022-08-02T04:50:31.611Z,17.50
2022-08-02T04:52:55.362Z,17.40
2022-08-02T04:55:19.040Z,17.40
2022-08-02T04:57:58.827Z,17.40
2022-08-02T05:00:23.458Z,17.40
2022-08-02T05:02:47.188Z,17.40
2022-08-02T05:05:11.149Z,17.50
2022-08-02T05:07:36.283Z,17.50
2022-08-02T05:10:00.655Z,17.50
2022-08-02T05:12:26.309Z,17.60
2022-08-02T05:14:50.254Z,17.60
2022-08-02T05:17:13.883Z,17.70
2022-08-02T05:19:37.607Z,17.70
2022-08-02T05:22:01.648Z,17.80
2022-08-02T05:24:26.828Z,17.80
2022-08-02T05:26:50.896Z,17.90
2022-08-02T05:29:14.622Z,17.90
2022-08-02T05:31:38.244Z,18.00
2022-08-02T05:34:02.048Z,17.90
2022-08-02T05:36:25.711Z,18.00
2022-08-02T05:38:50.905Z,18.10
2022-08-02T05:41:16.021Z,18.10
2022-08-02T05:43:39.878Z,18.20
2022-08-02T05:46:03.567Z,18.20
2022-08-02T05:48:31.651Z,18.30
2022-08-02T05:51:01.177Z,18.40
2022-08-02T05:53:34.432Z,18.40
2022-08-02T05:56:14.081Z,18.50
2022-08-02T05:58:50.905Z,18.70
2022-08-02T06:01:25.901Z,18.90
2022-08-02T06:03:54.117Z,19.10
2022-08-02T06:06:23.469Z,19.50
2022-08-02T06:08:50.001Z,19.90
2022-08-02T06:11:16.547Z,20.00
2022-08-02T06:13:43.106Z,20.60
2022-08-02T06:16:07.556Z,21.20
2022-08-02T06:18:38.381Z,21.70
2022-08-02T06:22:32.982Z,22.20
2022-08-02T06:23:57.458Z,22.30
2022-08-02T06:26:24.503Z,22.90
2022-08-02T06:28:50.745Z,23.40
2022-08-02T06:31:16.408Z,23.90
2022-08-02T06:33:40.696Z,24.30
2022-08-02T06:36:11.003Z,24.50
2022-08-02T06:38:42.791Z,25.10
2022-08-02T06:41:17.102Z,25.40
2022-08-02T06:43:54.979Z,25.20
2022-08-02T06:47:09.669Z,25.40
2022-08-02T06:49:03.867Z,25.50
2022-08-02T06:51:27.837Z,26.10
2022-08-02T06:53:51.655Z,26.30
2022-08-02T06:56:15.763Z,26.10
2022-08-02T06:58:40.153Z,26.40
2022-08-02T07:01:07.479Z,26.40
2022-08-02T07:03:31.283Z,26.40
2022-08-02T07:05:55.204Z,26.70
2022-08-02T07:08:19.979Z,26.70
2022-08-02T07:10:43.744Z,26.70
2022-08-02T07:13:07.513Z,26.70
2022-08-02T07:15:31.262Z,26.60
2022-08-02T07:17:56.408Z,26.40
2022-08-02T07:20:20.123Z,26.20
2022-08-02T07:22:44.205Z,26.10
2022-08-02T07:25:09.318Z,26.10
2022-08-02T07:27:33.677Z,25.80
2022-08-02T07:29:57.660Z,25.60
2022-08-02T07:32:23.857Z,25.40
2022-08-02T07:34:52.747Z,25.40
2022-08-02T07:37:35.657Z,25.40
2022-08-02T07:40:01.012Z,25.30
2022-08-02T07:42:27.321Z,25.10
2022-08-02T07:44:51.160Z,24.60
2022-08-02T07:47:15.083Z,24.50
2022-08-02T07:49:39.019Z,24.00
2022-08-02T07:52:04.700Z,24.10
2022-08-02T07:54:28.428Z,24.00
2022-08-02T07:56:57.598Z,23.80
2022-08-02T07:59:22.742Z,23.70
2022-08-02T08:01:46.526Z,23.60
2022-08-02T08:04:10.329Z,23.60
2022-08-02T08:06:34.364Z,23.20
2022-08-02T08:09:00.268Z,23.30
2022-08-02T08:11:24.327Z,23.30
2022-08-02T08:13:48.029Z,23.20
2022-08-02T08:16:12.230Z,23.20
2022-08-02T08:18:36.403Z,23.10
2022-08-02T08:21:00.823Z,23.00
2022-08-02T08:23:24.616Z,23.00
2022-08-02T08:25:49.721Z,22.80
2022-08-02T08:28:13.517Z,22.90
2022-08-02T08:30:37.233Z,22.80
2022-08-02T08:33:00.992Z,22.80
2022-08-02T08:35:24.693Z,22.70
2022-08-02T08:37:49.371Z,22.80
2022-08-02T08:40:19.670Z,22.80
2022-08-02T08:42:45.226Z,22.70
2022-08-02T08:45:10.593Z,22.70
2022-08-02T08:47:39.136Z,22.70
2022-08-02T08:50:07.143Z,22.50
2022-08-02T08:52:33.836Z,22.60
2022-08-02T08:54:59.394Z,22.70
2022-08-02T08:57:23.384Z,22.70
2022-08-02T08:59:48.642Z,22.70
2022-08-02T09:02:17.853Z,22.80
2022-08-02T09:04:50.555Z,22.80
2022-08-02T09:07:19.235Z,22.90
2022-08-02T09:09:42.873Z,22.90
2022-08-02T09:12:16.635Z,22.90
2022-08-02T09:14:40.535Z,23.00
2022-08-02T09:17:13.427Z,23.00
2022-08-02T09:19:37.549Z,22.90
2022-08-02T09:22:05.517Z,22.80
2022-08-02T09:24:31.664Z,22.80
2022-08-02T09:26:55.620Z,22.90
2022-08-02T09:29:23.409Z,22.90
2022-08-02T09:31:49.622Z,22.90
2022-08-02T09:34:15.392Z,23.00
2022-08-02T09:36:46.801Z,23.10
2022-08-02T09:39:12.500Z,23.10
2022-08-02T09:41:38.632Z,23.20
2022-08-02T09:44:06.557Z,23.30
2022-08-02T09:46:33.546Z,23.30
2022-08-02T09:48:58.882Z,23.40
2022-08-02T09:51:27.932Z,23.30
2022-08-02T09:54:05.958Z,23.40
2022-08-02T09:56:45.335Z,23.60
2022-08-02T09:59:09.709Z,23.70
2022-08-02T10:01:37.647Z,23.70
2022-08-02T10:04:04.837Z,23.70
2022-08-02T10:06:31.144Z,23.80
2022-08-02T10:08:55.506Z,24.00
2022-08-02T10:11:19.504Z,24.20
2022-08-02T10:13:44.316Z,24.30
2022-08-02T10:16:08.319Z,24.50
2022-08-02T10:18:41.045Z,24.90
2022-08-02T10:21:11.664Z,25.10
2022-08-02T10:23:40.630Z,25.20
2022-08-02T10:26:06.051Z,25.60
2022-08-02T10:28:31.540Z,26.30
2022-08-02T10:30:57.192Z,26.30
2022-08-02T10:33:22.356Z,26.40
2022-08-02T10:35:49.085Z,26.20
2022-08-02T10:38:28.732Z,26.60
2022-08-02T10:40:56.343Z,26.50
2022-08-02T10:43:50.066Z,26.90
2022-08-02T10:46:25.352Z,27.20
2022-08-02T10:49:37.397Z,27.30
2022-08-02T10:52:15.832Z,27.20
2022-08-02T10:54:42.008Z,27.80
2022-08-02T10:57:19.040Z,27.80
2022-08-02T10:59:42.780Z,27.80
2022-08-02T11:02:07.841Z,28.10
2022-08-02T11:04:33.505Z,28.40
2022-08-02T11:07:16.982Z,28.70
2022-08-02T11:09:40.732Z,28.90
2022-08-02T11:12:09.582Z,28.80
2022-08-02T11:14:35.985Z,29.10
2022-08-02T11:17:14.943Z,29.50
2022-08-02T11:20:21.117Z,29.20
2022-08-02T11:22:46.932Z,29.00
2022-08-02T11:26:02.214Z,29.00
2022-08-02T11:28:24.606Z,29.20
2022-08-02T11:30:59.021Z,29.40
2022-08-02T11:33:23.124Z,29.50
2022-08-02T11:35:47.517Z,29.80
2022-08-02T11:38:19.965Z,29.80
2022-08-02T11:40:45.100Z,29.60
2022-08-02T11:43:20.639Z,29.70
2022-08-02T11:45:44.437Z,29.70
2022-08-02T11:48:08.135Z,29.90
2022-08-02T11:50:31.880Z,30.30
2022-08-02T11:52:55.596Z,30.50
2022-08-02T11:55:19.411Z,30.00
2022-08-02T11:58:03.343Z,30.30
2022-08-02T12:00:30.628Z,30.30
2022-08-02T12:02:54.948Z,29.90
2022-08-02T12:05:24.677Z,30.00
2022-08-02T12:08:09.143Z,29.60
2022-08-02T12:10:33.024Z,29.90
2022-08-02T12:12:59.285Z,30.00
2022-08-02T12:15:36.855Z,30.10
2022-08-02T12:18:18.625Z,30.60
2022-08-02T12:20:42.811Z,30.40
2022-08-02T12:23:07.016Z,30.40
2022-08-02T12:25:33.640Z,30.30
2022-08-02T12:28:19.921Z,30.70
2022-08-02T12:30:54.719Z,31.00
2022-08-02T12:33:18.491Z,31.00
2022-08-02T12:35:42.209Z,31.20
2022-08-02T12:38:12.272Z,31.60
2022-08-02T12:40:36.422Z,31.90
2022-08-02T12:43:02.039Z,32.20
2022-08-02T12:45:26.800Z,32.00
2022-08-02T12:48:03.065Z,31.90
2022-08-02T12:50:31.562Z,31.90
2022-08-02T12:53:07.720Z,31.90
2022-08-02T12:56:02.510Z,32.30
2022-08-02T12:58:17.889Z,32.00
2022-08-02T13:00:41.915Z,32.20
2022-08-02T13:04:07.826Z,32.30
2022-08-02T13:05:57.278Z,32.40
2022-08-02T13:08:21.993Z,31.90
2022-08-02T13:10:46.364Z,31.90
2022-08-02T13:13:10.366Z,32.40
2022-08-02T13:15:49.843Z,31.90
2022-08-02T13:18:17.583Z,32.30
2022-08-02T13:20:44.717Z,32.50
2022-08-02T13:23:09.567Z,31.60
2022-08-02T13:25:45.327Z,31.60
2022-08-02T13:28:16.058Z,32.10
2022-08-02T13:30:40.330Z,31.80
2022-08-02T13:33:04.136Z,32.00
2022-08-02T13:35:29.419Z,32.00
2022-08-02T13:37:53.169Z,31.50
2022-08-02T13:40:21.970Z,31.90
2022-08-02T13:42:46.262Z,32.30
2022-08-02T13:45:12.891Z,31.80
2022-08-02T13:48:04.750Z,32.10
2022-08-02T13:50:25.503Z,32.10
2022-08-02T13:52:51.197Z,32.40
2022-08-02T13:55:15.736Z,32.20
2022-08-02T13:57:39.428Z,32.50
2022-08-02T14:00:07.365Z,31.80
2022-08-02T14:02:31.018Z,31.30
2022-08-02T14:04:54.756Z,31.60
2022-08-02T14:07:18.469Z,31.70
2022-08-02T14:09:44.384Z,31.80
2022-08-02T14:12:10.086Z,31.60
2022-08-02T14:14:34.343Z,31.90
2022-08-02T14:16:58.044Z,31.80
2022-08-02T14:19:25.808Z,31.70
2022-08-02T14:21:49.728Z,31.60
2022-08-02T14:24:13.557Z,31.80
2022-08-02T14:26:38.644Z,31.80
2022-08-02T14:29:02.413Z,32.00
2022-08-02T14:31:26.145Z,31.40
2022-08-02T14:33:49.935Z,31.20
2022-08-02T14:36:13.648Z,31.20
2022-08-02T14:38:37.869Z,30.90
2022-08-02T14:41:01.532Z,31.00
2022-08-02T14:43:44.183Z,31.10
2022-08-02T14:46:07.959Z,31.00
2022-08-02T14:48:31.732Z,31.10
2022-08-02T14:50:55.496Z,31.30
2022-08-02T14:53:19.236Z,31.40
2022-08-02T14:55:44.367Z,31.10
2022-08-02T14:58:08.103Z,31.10
2022-08-02T15:00:35.980Z,31.30
2022-08-02T15:03:04.292Z,31.10
2022-08-02T15:05:32.877Z,31.00
2022-08-02T15:07:56.658Z,31.10
2022-08-02T15:10:20.372Z,31.00
2022-08-02T15:12:44.133Z,30.70
2022-08-02T15:15:09.188Z,30.90
2022-08-02T15:17:34.380Z,30.90
2022-08-02T15:20:01.993Z,30.60
2022-08-02T15:22:41.766Z,30.40
2022-08-02T15:25:06.744Z,30.40
2022-08-02T15:27:39.505Z,30.20
2022-08-02T15:30:03.352Z,30.30
2022-08-02T15:32:27.717Z,30.40
2022-08-02T15:34:52.869Z,30.50
2022-08-02T15:37:16.657Z,30.30
2022-08-02T15:39:40.536Z,30.30
2022-08-02T15:42:04.699Z,30.40
2022-08-02T15:44:28.440Z,30.40
2022-08-02T15:46:53.484Z,30.00
2022-08-02T15:49:17.228Z,30.10
2022-08-02T15:51:42.406Z,30.10
2022-08-02T15:54:06.232Z,29.80
2022-08-02T15:56:30.003Z,30.00
2022-08-02T15:58:56.082Z,30.00
2022-08-02T16:01:22.926Z,29.30
2022-08-02T16:03:46.711Z,29.00
2022-08-02T16:06:10.502Z,29.00
2022-08-02T16:08:35.636Z,29.10
2022-08-02T16:10:59.368Z,29.20
2022-08-02T16:13:53.263Z,29.20
2022-08-02T16:16:18.066Z,29.20
2022-08-02T16:18:41.732Z,29.30
2022-08-02T16:21:05.725Z,29.30
2022-08-02T16:23:59.066Z,29.30
2022-08-02T16:26:14.619Z,29.40
2022-08-02T16:28:39.417Z,29.40
2022-08-02T16:31:11.009Z,29.30
2022-08-02T16:33:35.205Z,29.30
2022-08-02T16:35:59.891Z,29.30
2022-08-02T16:38:23.607Z,29.30
2022-08-02T16:40:47.325Z,29.30
2022-08-02T16:43:12.444Z,29.30
2022-08-02T16:45:36.165Z,29.20
2022-08-02T16:48:03.650Z,29.20
2022-08-02T16:50:29.810Z,29.20
2022-08-02T16:52:53.584Z,29.10
2022-08-02T16:55:17.346Z,29.20
2022-08-02T16:57:43.156Z,29.00
2022-08-02T17:00:15.541Z,29.10
2022-08-02T17:02:40.106Z,29.00
2022-08-02T17:05:03.828Z,29.00
2022-08-02T17:08:08.736Z,28.90
2022-08-02T17:10:11.385Z,28.90
2022-08-02T17:12:35.328Z,28.80
2022-08-02T17:15:00.713Z,28.80
2022-08-02T17:17:34.571Z,28.70
2022-08-02T17:19:58.623Z,28.60
2022-08-02T17:22:24.296Z,28.50
2022-08-02T17:24:49.192Z,28.50
2022-08-02T17:27:13.429Z,28.40
2022-08-02T17:29:42.143Z,28.30
2022-08-02T17:32:11.615Z,28.20
2022-08-02T17:34:38.032Z,28.10
2022-08-02T17:37:01.843Z,28.00
2022-08-02T17:39:34.263Z,27.90
2022-08-02T17:42:07.146Z,27.90
2022-08-02T17:44:36.965Z,27.80
2022-08-02T17:47:01.913Z,27.70
2022-08-02T17:49:25.966Z,27.60
2022-08-02T17:52:15.217Z,27.50
2022-08-02T17:54:36.087Z,27.40
2022-08-02T17:56:59.789Z,27.30
2022-08-02T17:59:30.644Z,27.20
2022-08-02T18:02:05.823Z,27.10
2022-08-02T18:04:32.099Z,27.00
2022-08-02T18:06:59.452Z,26.90
2022-08-02T18:09:27.927Z,26.80
2022-08-02T18:11:52.961Z,26.70
2022-08-02T18:14:19.295Z,26.60
2022-08-02T18:16:43.673Z,26.50
2022-08-02T18:19:10.165Z,26.40
2022-08-02T18:21:41.166Z,26.30
2022-08-02T18:24:07.615Z,26.20
2022-08-02T18:26:32.200Z,26.10
2022-08-02T18:28:56.569Z,25.90
2022-08-02T18:31:22.293Z,25.80
2022-08-02T18:34:00.016Z,25.70
2022-08-02T18:36:26.048Z,25.60
2022-08-02T18:38:49.756Z,25.50
2022-08-02T18:41:14.983Z,25.40
2022-08-02T18:43:43.534Z,25.30
2022-08-02T18:46:15.493Z,25.20
2022-08-02T18:48:54.898Z,25.10
2022-08-02T18:51:20.017Z,25.00
2022-08-02T18:53:44.060Z,24.90
2022-08-02T18:56:19.428Z,24.80
2022-08-02T18:58:49.352Z,24.70
2022-08-02T19:01:14.765Z,24.60
2022-08-02T19:03:49.200Z,24.50
2022-08-02T19:06:13.190Z,24.30
2022-08-02T19:08:37.336Z,24.30
2022-08-02T19:11:02.606Z,24.20
2022-08-02T19:13:26.648Z,24.10
2022-08-02T19:15:52.401Z,24.00
2022-08-02T19:18:16.228Z,23.90
2022-08-02T19:20:40.938Z,23.80
2022-08-02T19:23:12.180Z,23.70
2022-08-02T19:25:39.428Z,23.70
2022-08-02T19:28:14.161Z,23.60
2022-08-02T19:30:37.909Z,23.50
2022-08-02T19:33:08.497Z,23.40
2022-08-02T19:35:34.377Z,23.30
2022-08-02T19:38:07.439Z,23.20
2022-08-02T19:40:31.307Z,23.10
2022-08-02T19:44:25.692Z,23.10
2022-08-02T19:45:49.094Z,23.00
2022-08-02T19:48:16.059Z,22.90
2022-08-02T19:50:40.980Z,22.80
2022-08-02T19:53:08.295Z,22.70
2022-08-02T19:56:00.074Z,22.60
2022-08-02T19:58:19.531Z,22.50
2022-08-02T20:00:47.367Z,22.50
2022-08-02T20:03:11.377Z,22.40
2022-08-02T20:05:41.229Z,22.30
2022-08-02T20:08:05.571Z,22.20
2022-08-02T20:10:30.383Z,22.20
2022-08-02T20:12:57.512Z,22.10
2022-08-02T20:15:21.969Z,22.00
2022-08-02T20:17:47.328Z,22.00
2022-08-02T20:20:12.763Z,21.90
2022-08-02T20:22:58.655Z,21.80
2022-08-02T20:25:22.634Z,21.80
2022-08-02T20:27:51.030Z,21.70
2022-08-02T20:30:15.265Z,21.70
2022-08-02T20:32:38.991Z,21.70
2022-08-02T20:35:18.417Z,21.60
2022-08-02T20:37:59.538Z,21.50
2022-08-02T20:40:25.761Z,21.50
2022-08-02T20:42:49.534Z,21.40
2022-08-02T20:45:14.007Z,21.30
2022-08-02T20:47:40.346Z,21.30
2022-08-02T20:50:22.085Z,21.20
2022-08-02T20:52:55.960Z,21.20
2022-08-02T20:55:19.688Z,21.10
2022-08-02T20:57:49.125Z,21.10
2022-08-02T21:00:24.451Z,21.00
2022-08-02T21:02:48.092Z,20.90
2022-08-02T21:05:17.249Z,20.80
2022-08-02T21:07:42.015Z,20.80
2022-08-02T21:10:13.164Z,20.70
2022-08-02T21:12:37.148Z,20.70
2022-08-02T21:15:05.860Z,20.70
2022-08-02T21:17:42.550Z,20.60
2022-08-02T21:20:16.694Z,20.50
2022-08-02T21:22:40.640Z,20.40
2022-08-02T21:25:04.673Z,20.40
2022-08-02T21:27:53.339Z,20.30
2022-08-02T21:30:18.685Z,20.40
2022-08-02T21:32:42.379Z,20.20
2022-08-02T21:35:10.000Z,20.10
2022-08-02T21:37:44.562Z,20.10
2022-08-02T21:40:11.312Z,20.00
2022-08-02T21:42:36.475Z,20.00
2022-08-02T21:45:00.432Z,19.90
2022-08-02T21:47:26.773Z,19.90
2022-08-02T21:50:12.907Z,19.90
2022-08-02T21:52:34.690Z,19.80
2022-08-02T21:54:58.868Z,19.80
2022-08-02T21:57:23.014Z,19.80
2022-08-02T21:59:52.815Z,19.70
2022-08-02T22:02:22.196Z,19.70
2022-08-02T22:04:54.903Z,19.70
2022-08-02T22:07:24.077Z,19.70
2022-08-02T22:09:48.472Z,19.70
2022-08-02T22:12:17.670Z,19.60
2022-08-02T22:15:01.003Z,19.60
2022-08-02T22:17:49.836Z,19.60
2022-08-02T22:20:12.611Z,19.60
2022-08-02T22:22:37.305Z,19.50
2022-08-02T22:25:01.470Z,19.50
2022-08-02T22:28:13.260Z,19.50
2022-08-02T22:30:14.166Z,19.50
2022-08-02T22:32:55.999Z,19.50
2022-08-02T22:35:19.735Z,19.50
2022-08-02T22:38:17.587Z,19.50
2022-08-02T22:40:27.584Z,19.50
2022-08-02T22:42:51.629Z,19.50
2022-08-02T22:45:16.835Z,19.40
2022-08-02T22:47:51.121Z,19.50
2022-08-02T22:50:15.184Z,19.50
2022-08-02T22:52:39.772Z,19.50
2022-08-02T22:55:03.584Z,19.50
2022-08-02T22:57:30.339Z,19.50
2022-08-02T22:59:55.067Z,19.50
2022-08-02T23:02:20.188Z,19.50
2022-08-02T23:04:48.895Z,19.50
2022-08-02T23:07:12.620Z,19.50
2022-08-02T23:09:36.528Z,19.50
2022-08-02T23:12:00.271Z,19.50
2022-08-02T23:14:24.023Z,19.50
2022-08-02T23:17:05.098Z,19.60
2022-08-02T23:19:47.715Z,19.60
2022-08-02T23:22:11.575Z,19.60
2022-08-02T23:24:35.341Z,19.60
2022-08-02T23:26:59.152Z,19.60
2022-08-02T23:29:22.822Z,19.60
2022-08-02T23:31:46.548Z,19.60
2022-08-02T23:34:10.204Z,19.50
2022-08-02T23:36:35.460Z,19.50
2022-08-02T23:38:59.750Z,19.60
2022-08-02T23:41:23.893Z,19.50
2022-08-02T23:44:11.192Z,19.50
2022-08-02T23:46:31.508Z,19.50
2022-08-02T23:48:55.233Z,19.50
2022-08-02T23:51:22.312Z,19.50
2022-08-02T23:53:47.511Z,19.50
2022-08-02T23:56:11.354Z,19.40
2022-08-02T23:58:35.041Z,19.40
